Nære METAR værraporter

   
ENGM - Oslo
Oppdatert: 13-11-2018 03:20
Lett Regn, Overskyet  
Lett Regn, Overskyet  
   Vind: Nord 1 m/s
Vind: Nord 1 m/s
Temperatur: 5°C
Duggpunkt: 4°C
Luftfuktighet: 93%
Barometer: 1010 hPa
Skyer: Overskyet
Sikt: 7 km
Detaljer skyer: Overskyet 61 m
ENGM 130220Z 35002KT 7000 -RA OVC002 05/04 Q1010 RERA
ENTO - Sandefjord
Oppdatert: 13-11-2018 03:20
Overskyet  
Overskyet  
   Vind: SSV 2.6 m/s
Vind: SSV 2.6 m/s
Temperatur: 8°C
Wind Chill: 7°C
Duggpunkt: 8°C
Luftfuktighet: 100%
Barometer: 1011 hPa
Skyer: Overskyet
Sikt: 9 km
Detaljer skyer: For det meste Overskyet 121.9 m,
For det meste Overskyet 1127.8 m,
Overskyet 2133.6 m
ENTO 130220Z AUTO 21005KT 9000 BKN004/// BKN037/// OVC070/// 08/08 Q1011
ENNO - Notodden
Oppdatert: 12-11-2018 18:50
Oppdatert, se klokkeslett
Noen skyer  
Noen skyer  
   Vind: varierende 0.5 m/s
Vind: varierende 0.5 m/s
Temperatur: 4°C
Duggpunkt: 4°C
Luftfuktighet: 100%
Barometer: 1011 hPa
Skyer: Noen skyer
Sikt: More than 10 km
Detaljer skyer: Noen skyer 1676.4 m
ENNO 121750Z VRB01KT 9999 FEW055 04/04 Q1011
ENRY - Rygge
Oppdatert: 13-11-2018 03:20
For det meste Overskyet  
For det meste Overskyet  
   Vind: SSV 2.1 m/s
Vind: SSV 2.1 m/s
Temperatur: 9°C
Wind Chill: 8°C
Duggpunkt: 8°C
Luftfuktighet: 94%
Barometer: 1011 hPa
Skyer: For det meste Overskyet
Sikt: 10 km
Detaljer skyer: Noen skyer 182.9 m,
Delvis skyet 243.8 m,
For det meste Overskyet 335.3 m
ENRY 130220Z AUTO 20004KT 9999NDV FEW006/// SCT008/// BKN011/// 09/08 Q1011 REDZ
ENSN - Skien
Oppdatert: 09-11-2015 09:50
Oppdatert, se klokkeslett
Klart  
Klart  
   Vind: SSV 5.1 m/s<br />Gust to 5.1 m/s
Vind: SSV 5.1 m/s
Gust to 5.1 m/s
Temperatur: 7°C
Wind Chill: 4°C
Duggpunkt: 3°C
Luftfuktighet: 76%
Barometer: 1000 hPa
Sikt: More than 10 km
Detaljer skyer: Klart
ENSN 090850Z 20010G22KT 150V240 CAVOK 07/03 Q1000
ENFG - Fagernes
Oppdatert: 22-04-2018 10:50
Oppdatert, se klokkeslett
Klart  
Klart  
   Vind: Sør 3.6 m/s
Vind: Sør 3.6 m/s
Temperatur: 6°C
Wind Chill: 3°C
Duggpunkt: -3°C
Luftfuktighet: 53%
Barometer: 1014 hPa
Sikt: More than 10 km
Detaljer skyer: Klart
ENFG 220850Z 19007KT CAVOK 06/M03 Q1014

Script utviklet av  Saratoga-weather.org Tilpasset for tamplaten av  Weerstation Leuven

Du finner min vær info også på:

European Weather Network

Weather Underground

European Weather Network